createdAt,value
2018-09-21T00:00:59.729Z,94.70
2018-09-21T00:03:29.915Z,94.70
2018-09-21T00:06:01.398Z,94.60
2018-09-21T00:08:31.899Z,94.60
2018-09-21T00:11:02.292Z,94.70
2018-09-21T00:13:32.045Z,94.70
2018-09-21T00:16:02.159Z,94.80
2018-09-21T00:18:32.515Z,94.80
2018-09-21T00:21:02.964Z,94.80
2018-09-21T00:23:33.532Z,95.00
2018-09-21T00:26:03.303Z,95.20
2018-09-21T00:28:33.582Z,95.10
2018-09-21T00:31:03.892Z,95.10
2018-09-21T00:33:33.956Z,95.20
2018-09-21T00:36:05.405Z,95.20
2018-09-21T00:38:35.584Z,95.40
2018-09-21T00:41:05.650Z,95.50
2018-09-21T00:43:37.332Z,95.60
2018-09-21T00:46:08.361Z,95.70
2018-09-21T00:48:38.380Z,95.90
2018-09-21T00:51:09.198Z,95.90
2018-09-21T00:53:38.935Z,95.90
2018-09-21T00:56:09.483Z,95.90
2018-09-21T00:58:40.887Z,95.90
2018-09-21T01:01:11.877Z,96.00
2018-09-21T01:03:42.169Z,96.00
2018-09-21T01:06:12.045Z,96.00
2018-09-21T01:08:43.539Z,96.00
2018-09-21T01:11:13.656Z,96.20
2018-09-21T01:13:43.880Z,96.30
2018-09-21T01:16:15.287Z,96.30
2018-09-21T01:18:45.364Z,96.40
2018-09-21T01:21:16.523Z,96.40
2018-09-21T01:23:47.037Z,96.40
2018-09-21T01:26:17.175Z,96.50
2018-09-21T01:28:47.705Z,96.50
2018-09-21T01:31:17.633Z,96.60
2018-09-21T01:33:47.703Z,96.70
2018-09-21T01:36:18.200Z,96.80
2018-09-21T01:38:48.455Z,96.90
2018-09-21T01:41:22.014Z,96.90
2018-09-21T01:43:52.434Z,97.10
2018-09-21T01:46:22.607Z,97.20
2018-09-21T01:48:53.508Z,97.10
2018-09-21T01:51:25.347Z,97.20
2018-09-21T01:53:55.556Z,97.40
2018-09-21T01:56:25.646Z,97.50
2018-09-21T01:58:56.629Z,97.50
2018-09-21T02:01:26.927Z,97.40
2018-09-21T02:03:58.096Z,97.60
2018-09-21T02:06:29.215Z,97.70
2018-09-21T02:09:03.439Z,98.00
2018-09-21T02:11:33.269Z,97.90
2018-09-21T02:14:03.828Z,97.80
2018-09-21T02:16:35.460Z,97.90
2018-09-21T02:19:06.279Z,98.00
2018-09-21T02:21:36.758Z,98.00
2018-09-21T02:24:06.876Z,98.10
2018-09-21T02:26:36.983Z,98.20
2018-09-21T02:29:08.267Z,98.30
2018-09-21T02:31:38.684Z,98.30
2018-09-21T02:34:09.101Z,98.50
2018-09-21T02:36:39.284Z,98.30
2018-09-21T02:39:11.753Z,98.40
2018-09-21T02:41:42.767Z,98.50
2018-09-21T02:44:15.481Z,98.50
2018-09-21T02:46:46.563Z,98.60
2018-09-21T02:49:18.073Z,98.60
2018-09-21T02:51:48.104Z,98.80
2018-09-21T02:54:18.145Z,98.80
2018-09-21T02:56:49.348Z,98.90
2018-09-21T02:59:19.776Z,98.90
2018-09-21T03:01:49.929Z,99.00
2018-09-21T03:04:22.427Z,99.00
2018-09-21T03:06:54.040Z,99.00
2018-09-21T03:09:26.098Z,99.20
2018-09-21T03:11:57.076Z,99.30
2018-09-21T03:14:27.358Z,99.30
2018-09-21T03:16:57.206Z,99.40
2018-09-21T03:19:27.458Z,99.50
2018-09-21T03:21:59.369Z,99.40
2018-09-21T03:24:29.418Z,99.40
2018-09-21T03:26:59.616Z,99.80
2018-09-21T03:29:30.805Z,99.60
2018-09-21T03:32:00.684Z,99.60
2018-09-21T03:34:30.758Z,99.60
2018-09-21T03:37:01.418Z,99.70
2018-09-21T03:39:32.711Z,99.80
2018-09-21T03:42:02.780Z,99.90
2018-09-21T03:44:33.741Z,99.80
2018-09-21T03:47:04.177Z,99.80
2018-09-21T03:49:34.596Z,99.90
2018-09-21T03:52:05.824Z,99.80
2018-09-21T03:54:37.299Z,99.90
2018-09-21T03:57:09.140Z,99.80
2018-09-21T03:59:41.047Z,99.80
2018-09-21T04:02:12.420Z,99.80
2018-09-21T04:04:44.125Z,99.70
2018-09-21T04:07:16.432Z,99.60
2018-09-21T04:09:46.747Z,99.90
2018-09-21T04:12:17.046Z,99.50
2018-09-21T04:14:47.056Z,99.50
2018-09-21T04:17:17.575Z,99.40
2018-09-21T04:19:48.528Z,99.30
2018-09-21T04:22:18.923Z,99.20
2018-09-21T04:24:49.699Z,99.30
2018-09-21T04:27:20.290Z,99.20
2018-09-21T04:29:50.734Z,99.20
2018-09-21T04:32:21.196Z,99.10
2018-09-21T04:34:54.947Z,99.00
2018-09-21T04:37:25.735Z,99.00
2018-09-21T04:39:56.210Z,98.90
2018-09-21T04:42:26.308Z,98.80
2018-09-21T04:44:56.501Z,98.90
2018-09-21T04:47:26.587Z,98.80
2018-09-21T04:49:56.764Z,98.80
2018-09-21T04:52:27.929Z,98.90
2018-09-21T04:55:00.282Z,98.70
2018-09-21T04:57:30.279Z,98.70
2018-09-21T05:00:01.724Z,98.60
2018-09-21T05:02:33.127Z,98.60
2018-09-21T05:05:03.638Z,98.50
2018-09-21T05:07:35.088Z,98.40
2018-09-21T05:10:05.547Z,98.40
2018-09-21T05:12:36.052Z,98.40
2018-09-21T05:15:07.215Z,98.40
2018-09-21T05:17:39.075Z,98.40
2018-09-21T05:20:09.451Z,98.30
2018-09-21T05:22:40.039Z,98.20
2018-09-21T05:25:10.396Z,98.10
2018-09-21T05:27:40.953Z,98.10
2018-09-21T05:30:11.044Z,98.10
2018-09-21T05:32:41.484Z,98.20
2018-09-21T05:35:12.531Z,98.20
2018-09-21T05:37:44.979Z,98.20
2018-09-21T05:40:16.918Z,98.20
2018-09-21T05:42:46.749Z,98.20
2018-09-21T05:45:17.539Z,98.00
2018-09-21T05:47:47.675Z,98.20
2018-09-21T05:50:18.304Z,98.20
2018-09-21T05:52:48.706Z,98.20
2018-09-21T05:55:20.305Z,98.10
2018-09-21T05:57:58.314Z,98.00
2018-09-21T06:00:30.459Z,98.00
2018-09-21T06:03:01.098Z,98.10
2018-09-21T06:05:31.593Z,98.10
2018-09-21T06:08:01.915Z,98.10
2018-09-21T06:10:33.093Z,98.00
2018-09-21T06:13:04.836Z,97.90
2018-09-21T06:15:35.248Z,97.90
2018-09-21T06:18:05.925Z,98.00
2018-09-21T06:20:36.402Z,98.00
2018-09-21T06:23:07.139Z,98.00
2018-09-21T06:25:37.337Z,97.90
2018-09-21T06:28:07.770Z,97.80
2018-09-21T06:30:39.689Z,97.80
2018-09-21T06:33:09.993Z,97.90
2018-09-21T06:35:39.955Z,97.80
2018-09-21T06:38:10.505Z,97.80
2018-09-21T06:40:42.232Z,97.60
2018-09-21T06:43:14.377Z,97.50
2018-09-21T06:45:44.660Z,97.60
2018-09-21T06:48:14.976Z,97.60
2018-09-21T06:50:45.733Z,97.60
2018-09-21T06:53:15.825Z,97.70
2018-09-21T06:55:47.663Z,97.40
2018-09-21T06:58:17.893Z,97.30
2018-09-21T07:00:47.854Z,97.30
2018-09-21T07:03:18.699Z,97.40
2018-09-21T07:05:49.708Z,97.20
2018-09-21T07:08:20.452Z,97.20
2018-09-21T07:10:51.397Z,97.00
2018-09-21T07:13:21.578Z,97.40
2018-09-21T07:15:51.753Z,96.90
2018-09-21T07:18:22.961Z,96.90
2018-09-21T07:20:53.569Z,96.80
2018-09-21T07:23:24.197Z,96.70
2018-09-21T07:25:56.495Z,96.70
2018-09-21T07:28:26.995Z,96.70
2018-09-21T07:30:59.292Z,96.90
2018-09-21T07:33:29.596Z,96.90
2018-09-21T07:36:01.377Z,97.10
2018-09-21T07:38:34.201Z,97.00
2018-09-21T07:41:04.816Z,97.00
2018-09-21T07:43:37.367Z,97.10
2018-09-21T07:46:07.922Z,96.90
2018-09-21T07:48:38.035Z,97.10
2018-09-21T07:51:08.664Z,97.00
2018-09-21T07:53:39.172Z,97.00
2018-09-21T07:56:09.332Z,96.90
2018-09-21T07:58:40.321Z,97.00
2018-09-21T08:01:10.406Z,96.90
2018-09-21T08:03:40.642Z,96.80
2018-09-21T08:06:10.825Z,96.70
2018-09-21T08:08:43.068Z,96.50
2018-09-21T08:11:13.778Z,96.60
2018-09-21T08:13:44.068Z,96.40
2018-09-21T08:16:14.430Z,96.50
2018-09-21T08:18:44.684Z,96.50
2018-09-21T08:21:15.454Z,96.30
2018-09-21T08:23:47.647Z,96.40
2018-09-21T08:26:18.467Z,96.40
2018-09-21T08:28:49.908Z,96.40
2018-09-21T08:31:20.212Z,96.30
2018-09-21T08:33:50.874Z,96.00
2018-09-21T08:36:21.017Z,96.00
2018-09-21T08:38:51.247Z,96.00
2018-09-21T08:41:21.496Z,95.80
2018-09-21T08:43:53.739Z,95.70
2018-09-21T08:46:24.369Z,95.90
2018-09-21T08:48:54.656Z,95.30
2018-09-21T08:51:26.432Z,95.30
2018-09-21T08:53:57.458Z,95.20
2018-09-21T08:56:27.662Z,95.30
2018-09-21T08:58:57.964Z,95.50
2018-09-21T09:01:28.275Z,95.60
2018-09-21T09:03:58.845Z,95.70
2018-09-21T09:06:30.950Z,95.90
2018-09-21T09:09:03.103Z,95.80
2018-09-21T09:11:33.574Z,96.00
2018-09-21T09:14:03.520Z,96.30
2018-09-21T09:16:34.582Z,96.50
2018-09-21T09:19:07.060Z,96.70
2018-09-21T09:21:37.551Z,98.10
2018-09-21T09:24:09.573Z,99.90
2018-09-21T09:26:40.685Z,99.90
2018-09-21T09:29:10.960Z,99.90
2018-09-21T09:31:42.537Z,99.90
2018-09-21T09:34:12.446Z,99.90
2018-09-21T09:36:43.466Z,99.90
2018-09-21T09:39:15.130Z,99.90
2018-09-21T09:41:45.784Z,99.90
2018-09-21T09:44:16.659Z,99.90
2018-09-21T09:46:48.575Z,99.90
2018-09-21T09:49:18.905Z,99.90
2018-09-21T09:51:49.880Z,99.90
2018-09-21T09:54:20.202Z,99.90
2018-09-21T09:56:50.720Z,99.90
2018-09-21T09:59:23.765Z,99.90
2018-09-21T10:01:56.755Z,99.90
2018-09-21T10:04:30.014Z,99.90
2018-09-21T10:07:01.324Z,99.90
2018-09-21T10:09:31.950Z,99.90
2018-09-21T10:12:02.077Z,99.90
2018-09-21T10:14:35.151Z,99.90
2018-09-21T10:17:05.777Z,99.90
2018-09-21T10:19:36.064Z,99.90
2018-09-21T10:22:06.448Z,99.90
2018-09-21T10:24:39.285Z,99.90
2018-09-21T10:27:09.875Z,99.90
2018-09-21T10:29:41.396Z,99.90
2018-09-21T10:32:12.471Z,99.90
2018-09-21T10:34:43.504Z,99.90
2018-09-21T10:37:13.659Z,99.90
2018-09-21T10:39:45.980Z,99.90
2018-09-21T10:42:17.597Z,99.90
2018-09-21T10:44:47.591Z,99.90
2018-09-21T10:47:18.477Z,99.90
2018-09-21T10:49:49.416Z,99.90
2018-09-21T10:52:19.861Z,99.90
2018-09-21T10:54:51.344Z,99.90
2018-09-21T10:57:22.362Z,99.90
2018-09-21T10:59:52.568Z,99.90
2018-09-21T11:02:23.456Z,99.90
2018-09-21T11:04:53.643Z,99.90
2018-09-21T11:07:25.102Z,99.90
2018-09-21T11:09:56.045Z,99.90
2018-09-21T11:12:26.965Z,99.90
2018-09-21T11:14:58.954Z,99.90
2018-09-21T11:17:29.386Z,99.90
2018-09-21T11:19:59.244Z,99.90
2018-09-21T11:22:32.250Z,99.90
2018-09-21T11:25:04.226Z,99.90
2018-09-21T11:27:34.373Z,99.90
2018-09-21T11:30:07.853Z,99.90
2018-09-21T11:32:45.696Z,99.90
2018-09-21T11:35:16.176Z,99.90
2018-09-21T11:37:50.137Z,99.90
2018-09-21T11:40:20.526Z,99.90
2018-09-21T11:42:51.107Z,99.90
2018-09-21T11:45:24.093Z,99.90
2018-09-21T11:47:56.588Z,99.90
2018-09-21T11:50:27.415Z,99.90
2018-09-21T11:53:02.203Z,99.90
2018-09-21T11:55:32.978Z,99.90
2018-09-21T11:58:03.593Z,99.90
2018-09-21T12:00:35.531Z,99.90
2018-09-21T12:03:05.903Z,99.90
2018-09-21T12:05:38.397Z,99.90
2018-09-21T12:08:09.310Z,99.90
2018-09-21T12:10:39.395Z,99.90
2018-09-21T12:13:12.944Z,99.90
2018-09-21T12:15:50.983Z,99.90
2018-09-21T12:18:27.225Z,99.90
2018-09-21T12:21:05.223Z,99.90
2018-09-21T12:23:36.018Z,99.90
2018-09-21T12:26:10.107Z,99.90
2018-09-21T12:28:45.249Z,99.90
2018-09-21T12:31:32.527Z,99.90
2018-09-21T12:36:38.912Z,99.90
2018-09-21T12:39:16.491Z,99.90
2018-09-21T12:41:52.906Z,99.90
2018-09-21T12:44:24.649Z,99.90
2018-09-21T12:47:00.285Z,99.90
2018-09-21T12:49:33.193Z,99.90
2018-09-21T12:52:05.998Z,99.90
2018-09-21T12:54:45.816Z,99.90
2018-09-21T12:57:22.824Z,99.90
2018-09-21T13:00:01.225Z,99.90
2018-09-21T13:02:34.439Z,99.90
2018-09-21T13:05:06.539Z,99.90
2018-09-21T13:07:51.606Z,99.90
2018-09-21T13:10:26.689Z,99.90
2018-09-21T13:13:00.739Z,99.90
2018-09-21T13:15:40.031Z,99.90
2018-09-21T13:18:12.380Z,99.90
2018-09-21T13:20:43.209Z,99.90
2018-09-21T13:23:13.683Z,99.90
2018-09-21T13:25:44.562Z,99.90
2018-09-21T13:28:17.148Z,99.90
2018-09-21T13:30:47.868Z,99.90
2018-09-21T13:33:18.672Z,99.90
2018-09-21T13:35:48.667Z,99.90
2018-09-21T13:38:21.339Z,99.90
2018-09-21T13:40:52.048Z,99.90
2018-09-21T13:43:22.787Z,99.90
2018-09-21T13:45:54.608Z,99.90
2018-09-21T13:48:26.142Z,99.90
2018-09-21T13:50:56.836Z,99.50
2018-09-21T13:53:27.766Z,98.80
2018-09-21T13:55:58.308Z,98.30
2018-09-21T13:58:28.407Z,98.40
2018-09-21T14:01:17.143Z,98.10
2018-09-21T14:03:57.411Z,98.30
2018-09-21T14:06:27.519Z,97.90
2018-09-21T14:08:59.797Z,97.80
2018-09-21T14:11:31.571Z,97.40
2018-09-21T14:14:01.425Z,97.00
2018-09-21T14:16:32.783Z,97.00
2018-09-21T14:19:03.908Z,96.90
2018-09-21T14:21:39.118Z,96.10
2018-09-21T14:24:09.421Z,96.30
2018-09-21T14:26:39.924Z,96.00
2018-09-21T14:29:26.922Z,96.90
2018-09-21T14:32:09.896Z,95.50
2018-09-21T14:34:56.478Z,96.10
2018-09-21T14:37:28.508Z,96.40
2018-09-21T14:40:01.378Z,95.90
2018-09-21T14:42:34.343Z,96.00
2018-09-21T14:45:05.260Z,95.80
2018-09-21T14:47:35.692Z,96.40
2018-09-21T14:50:06.560Z,95.80
2018-09-21T14:52:36.484Z,95.40
2018-09-21T14:55:08.332Z,95.80
2018-09-21T14:57:38.123Z,95.50
2018-09-21T15:00:09.047Z,95.50
2018-09-21T15:02:40.878Z,94.80
2018-09-21T15:05:12.085Z,95.20
2018-09-21T15:07:42.987Z,95.40
2018-09-21T15:10:13.946Z,95.40
2018-09-21T15:12:44.084Z,95.10
2018-09-21T15:15:14.040Z,94.90
2018-09-21T15:17:44.306Z,94.50
2018-09-21T15:20:14.506Z,93.50
2018-09-21T15:22:45.257Z,93.40
2018-09-21T15:25:16.810Z,92.50
2018-09-21T15:27:47.392Z,92.60
2018-09-21T15:30:18.360Z,91.60
2018-09-21T15:32:49.494Z,91.10
2018-09-21T15:35:19.780Z,90.60
2018-09-21T15:37:50.916Z,90.60
2018-09-21T15:40:23.957Z,90.40
2018-09-21T15:42:54.081Z,90.70
2018-09-21T15:45:27.678Z,90.00
2018-09-21T15:48:01.434Z,90.50
2018-09-21T15:50:32.976Z,90.60
2018-09-21T15:53:07.608Z,91.10
2018-09-21T15:55:40.976Z,91.60
2018-09-21T15:58:14.569Z,91.70
2018-09-21T16:00:52.113Z,91.90
2018-09-21T16:03:23.738Z,91.80
2018-09-21T16:05:54.108Z,90.80
2018-09-21T16:08:28.497Z,91.10
2018-09-21T16:10:59.900Z,90.80
2018-09-21T16:13:30.768Z,91.00
2018-09-21T16:16:02.067Z,91.10
2018-09-21T16:18:31.984Z,91.20
2018-09-21T16:21:03.295Z,91.20
2018-09-21T16:23:34.424Z,91.50
2018-09-21T16:26:04.797Z,91.40
2018-09-21T16:28:36.399Z,91.50
2018-09-21T16:31:07.601Z,91.40
2018-09-21T16:33:42.287Z,90.90
2018-09-21T16:36:22.683Z,91.20
2018-09-21T16:38:53.357Z,91.20
2018-09-21T16:41:28.978Z,91.40
2018-09-21T16:43:59.076Z,91.40
2018-09-21T16:46:29.340Z,91.20
2018-09-21T16:49:04.849Z,91.40
2018-09-21T16:51:35.916Z,91.30
2018-09-21T16:54:05.781Z,91.30
2018-09-21T16:56:38.755Z,91.00
2018-09-21T16:59:10.885Z,91.00
2018-09-21T17:01:42.288Z,91.00
2018-09-21T17:04:15.549Z,91.20
2018-09-21T17:06:49.109Z,91.30
2018-09-21T17:09:20.278Z,91.40
2018-09-21T17:11:52.098Z,91.50
2018-09-21T17:14:23.848Z,91.50
2018-09-21T17:16:55.108Z,91.40
2018-09-21T17:19:25.665Z,91.70
2018-09-21T17:21:56.035Z,91.40
2018-09-21T17:24:27.767Z,91.90
2018-09-21T17:27:00.317Z,92.00
2018-09-21T17:29:32.768Z,92.00
2018-09-21T17:32:04.036Z,92.10
2018-09-21T17:34:35.432Z,92.20
2018-09-21T17:37:05.529Z,92.20
2018-09-21T17:39:36.209Z,92.50
2018-09-21T17:42:08.800Z,92.10
2018-09-21T17:44:40.713Z,91.90
2018-09-21T17:47:11.175Z,91.70
2018-09-21T17:49:41.497Z,91.80
2018-09-21T17:52:12.667Z,91.90
2018-09-21T17:54:42.960Z,91.90
2018-09-21T17:57:14.645Z,92.10
2018-09-21T17:59:45.109Z,92.00
2018-09-21T18:02:17.613Z,92.20
2018-09-21T18:04:51.496Z,92.10
2018-09-21T18:07:23.290Z,92.30
2018-09-21T18:09:54.988Z,92.30
2018-09-21T18:12:27.210Z,92.40
2018-09-21T18:14:57.930Z,92.50
2018-09-21T18:17:28.900Z,92.50
2018-09-21T18:19:59.866Z,92.40
2018-09-21T18:22:30.353Z,92.40
2018-09-21T18:25:00.652Z,92.40
2018-09-21T18:27:31.219Z,92.70
2018-09-21T18:30:03.282Z,92.60
2018-09-21T18:32:34.271Z,92.70
2018-09-21T18:35:04.751Z,92.70
2018-09-21T18:37:37.163Z,92.80
2018-09-21T18:40:07.918Z,93.30
2018-09-21T18:42:38.548Z,93.70
2018-09-21T18:45:08.845Z,94.30
2018-09-21T18:47:40.044Z,95.60
2018-09-21T18:50:12.622Z,99.20
2018-09-21T18:52:44.181Z,99.90
2018-09-21T18:55:14.076Z,99.90
2018-09-21T18:57:44.661Z,99.90
2018-09-21T19:00:15.423Z,99.90
2018-09-21T19:02:46.422Z,99.90
2018-09-21T19:05:17.584Z,99.90
2018-09-21T19:07:47.892Z,99.90
2018-09-21T19:10:18.340Z,99.90
2018-09-21T19:12:50.211Z,99.90
2018-09-21T19:15:21.088Z,99.90
2018-09-21T19:17:54.003Z,99.90
2018-09-21T19:20:24.789Z,99.90
2018-09-21T19:22:55.073Z,99.90
2018-09-21T19:25:25.026Z,99.90
2018-09-21T19:27:55.868Z,99.90
2018-09-21T19:30:27.189Z,99.90
2018-09-21T19:32:57.595Z,99.90
2018-09-21T19:35:27.934Z,99.90
2018-09-21T19:37:58.425Z,99.90
2018-09-21T19:40:28.596Z,99.90
2018-09-21T19:43:00.452Z,99.90
2018-09-21T19:45:31.529Z,99.90
2018-09-21T19:48:02.101Z,99.90
2018-09-21T19:50:33.725Z,99.90
2018-09-21T19:53:05.107Z,99.90
2018-09-21T19:55:35.816Z,99.90
2018-09-21T19:58:07.568Z,99.90
2018-09-21T20:00:40.528Z,99.90
2018-09-21T20:03:11.256Z,99.90
2018-09-21T20:05:41.535Z,99.90
2018-09-21T20:08:12.798Z,99.90
2018-09-21T20:10:44.251Z,99.90
2018-09-21T20:13:15.617Z,99.90
2018-09-21T20:15:45.892Z,99.90
2018-09-21T20:18:16.134Z,99.90
2018-09-21T20:20:46.797Z,99.90
2018-09-21T20:23:16.704Z,99.90
2018-09-21T20:25:46.949Z,99.90
2018-09-21T20:28:20.372Z,99.90
2018-09-21T20:33:01.086Z,99.90
2018-09-21T20:35:32.880Z,99.90
2018-09-21T20:38:03.046Z,99.90
2018-09-21T20:40:33.410Z,99.90
2018-09-21T20:43:04.623Z,99.90
2018-09-21T20:45:35.232Z,99.90
2018-09-21T20:48:05.485Z,99.90
2018-09-21T20:50:35.766Z,99.90
2018-09-21T20:53:06.326Z,99.90
2018-09-21T20:55:37.608Z,99.90
2018-09-21T20:58:09.848Z,99.90
2018-09-21T21:00:40.703Z,99.90
2018-09-21T21:03:11.865Z,99.90
2018-09-21T21:05:44.132Z,99.90
2018-09-21T21:08:28.105Z,99.90
2018-09-21T21:10:58.679Z,99.90
2018-09-21T21:13:30.709Z,99.90
2018-09-21T21:16:01.053Z,99.90
2018-09-21T21:18:30.988Z,99.90
2018-09-21T21:21:04.036Z,99.90
2018-09-21T21:23:34.565Z,99.90
2018-09-21T21:26:05.483Z,99.90
2018-09-21T21:28:35.869Z,99.90
2018-09-21T21:31:06.425Z,99.90
2018-09-21T21:33:36.483Z,99.90
2018-09-21T21:36:06.951Z,99.90
2018-09-21T21:38:37.529Z,99.90
2018-09-21T21:41:07.816Z,99.90
2018-09-21T21:43:38.676Z,99.90
2018-09-21T21:46:09.902Z,99.90
2018-09-21T21:48:40.820Z,99.90
2018-09-21T21:51:11.652Z,99.90
2018-09-21T21:53:43.642Z,99.90
2018-09-21T21:56:15.223Z,99.90
2018-09-21T21:58:47.568Z,99.90
2018-09-21T22:01:23.496Z,99.90
2018-09-21T22:03:54.819Z,99.90
2018-09-21T22:06:26.863Z,99.90
2018-09-21T22:08:58.437Z,99.90
2018-09-21T22:11:34.770Z,99.90
2018-09-21T22:14:08.313Z,99.90
2018-09-21T22:16:38.392Z,99.90
2018-09-21T22:19:09.646Z,99.90
2018-09-21T22:21:41.944Z,99.90
2018-09-21T22:24:12.796Z,99.90
2018-09-21T22:26:43.534Z,99.90
2018-09-21T22:29:14.781Z,99.90
2018-09-21T22:31:44.879Z,99.90
2018-09-21T22:34:15.094Z,99.90
2018-09-21T22:36:45.044Z,99.90
2018-09-21T22:39:15.936Z,99.90
2018-09-21T22:41:46.337Z,99.90
2018-09-21T22:44:16.663Z,99.90
2018-09-21T22:46:47.253Z,99.90
2018-09-21T22:49:20.310Z,99.90
2018-09-21T22:51:50.720Z,99.90
2018-09-21T22:54:20.991Z,99.90
2018-09-21T22:56:50.914Z,99.90
2018-09-21T22:59:21.408Z,99.90
2018-09-21T23:01:51.828Z,99.90
2018-09-21T23:04:21.884Z,99.90
2018-09-21T23:06:52.074Z,99.90
2018-09-21T23:09:22.139Z,99.90
2018-09-21T23:11:53.711Z,99.90
2018-09-21T23:14:24.747Z,99.90
2018-09-21T23:16:54.989Z,99.90
2018-09-21T23:19:27.309Z,99.90
2018-09-21T23:21:58.376Z,99.90
2018-09-21T23:24:28.871Z,99.90
2018-09-21T23:26:59.626Z,99.90
2018-09-21T23:29:31.250Z,99.90
2018-09-21T23:32:01.552Z,99.90
2018-09-21T23:34:31.919Z,99.90
2018-09-21T23:37:03.081Z,99.90
2018-09-21T23:39:33.092Z,99.90
2018-09-21T23:42:03.615Z,99.90
2018-09-21T23:44:33.736Z,99.90
2018-09-21T23:47:04.778Z,99.90
2018-09-21T23:49:34.764Z,99.90
2018-09-21T23:52:04.920Z,99.90
2018-09-21T23:54:35.362Z,99.90
2018-09-21T23:57:06.281Z,99.90
2018-09-21T23:59:36.441Z,99.90
